| Date | Time | Temp. (oF) | Dew Point (oF) | Rel. Hum. (%) | Press. (in.) | Wind Dir. | Wind Speed (mph) | Hourly Rainfall (in.) |
|
|---|---|---|---|---|---|---|---|---|---|
| 1 | 11/19 | 00:00 | 56 | 49 | 78 | 29.32 | S | 7 | 0.00 |
| 2 | 11/18 | 23:00 | 55 | 46 | 74 | 29.34 | SSW | 8 | 0.00 |
| 3 | 11/18 | 22:00 | 52 | 44 | 76 | 29.37 | SSE | 6 | 0.00 |
| 4 | 11/18 | 21:00 | 50 | 43 | 79 | 29.43 | S | 9 | 0.00 |
| 5 | 11/18 | 20:00 | 48 | 44 | 86 | 29.47 | SSE | 9 | 0.01 |
| 6 | 11/18 | 19:00 | 43 | 42 | 100 | 29.49 | E | 3 | 0.00 |
| 7 | 11/18 | 18:00 | 42 | 41 | 100 | 29.54 | ENE | 2 | 0.00 |
| 8 | 11/18 | 17:00 | 42 | 41 | 100 | 29.57 | NE | 3 | 0.01 |
| 9 | 11/18 | 16:00 | 41 | 41 | 100 | 29.60 | ENE | 3 | 0.31 |
| 10 | 11/18 | 15:00 | 41 | 41 | 100 | 29.64 | E | 2 | 0.25 |
| 11 | 11/18 | 14:00 | 41 | 41 | 100 | 29.67 | ENE | 1 | 0.26 |
| 12 | 11/18 | 13:00 | 41 | 41 | 100 | 29.71 | ENE | 2 | 0.22 |
| 13 | 11/18 | 12:00 | 41 | 39 | 95 | 29.74 | SE | 2 | 0.09 |
| 14 | 11/18 | 11:00 | 42 | 36 | 82 | 29.80 | SE | 2 | 0.01 |
| 15 | 11/18 | 10:00 | 41 | 33 | 74 | 29.84 | ESE | 4 | 0.00 |
| 16 | 11/18 | 09:00 | 40 | 33 | 76 | 29.87 | SSE | 7 | 0.00 |
| 17 | 11/18 | 08:00 | 38 | 31 | 77 | 29.88 | S | 4 | 0.00 |
| 18 | 11/18 | 07:00 | 35 | 30 | 83 | 29.90 | SSE | 3 | 0.00 |
| 19 | 11/18 | 06:00 | 29 | 27 | 94 | 29.92 | E | 1 | 0.00 |
| 20 | 11/18 | 05:00 | 27 | 26 | 96 | 29.95 | E | 3 | 0.00 |
| 21 | 11/18 | 04:00 | 27 | 27 | 100 | 29.97 | E | 1 | 0.00 |
| 22 | 11/18 | 03:00 | 28 | 27 | 99 | 29.98 | E | 1 | 0.00 |
| 23 | 11/18 | 02:00 | 28 | 27 | 96 | 30.00 | E | 1 | 0.00 |
| 24 | 11/18 | 01:00 | 29 | 27 | 93 | 30.03 | E | 0 | 0.00 |